Rock Quarry, Louisiana
Current Conditions -  °F | °C
As of 11:13 AM on Monday 22 Dec 2014 (Local Time) from KAEX Reporting Station
Haze Haze  
Wind Chill: 58°   Ceiling: 200
Heat Index: 58°   Visibility: 3mi
Dew Point: 58°   Wind: 8mph
Humidity: 100%   Direction: 150°SSE
Pressure: 29.73"   Gusts: NA
Location:  31.4254°N, 92.7765°W
Report Text: KAEX 221713Z AUTO 15007KT 3SM BR OVC002 14/14 A2973 RMK AO2 T01440144
Loading
Personal Weather Stations






























Interactive Weather Map New forecast layout! Learn more

10-Day Weather Forecast

Advertisements
Track Severe Weather on mobile